Eldena, IL (61324)

12:58 AM CST on February 07, 2016 (GMT -0600)
Walton Road | | Change Station
CLOSE
Current Station
Personal Weather Station
Location: Dixon, IL
Elevation: 778 ft
Nearby Weather Stations

Elev 778 ft 41.75 °N, 89.44 °W | Updated 3 minutes ago

Overcast
Overcast
36.0 °F
Feels Like 32 °F
N
5.0
Wind Variable Wind from South
Gusts 18.0 mph

Today
High -- | Low -- °F
--% Chance of Precip.
Yesterday
High -- | Low -- °F
Precip. -- in
Pressure 29.97 in
Visibility 10.0 miles
Clouds Few 12000 ft
Windchill 32 °F
Dew Point 33 °F
Humidity 88%
Rainfall 0.00 in
Snow Depth Not available.
7:03 AM 5:20 PM
Waning Crescent, 2% visible
METAR KSQI 070655Z 21003KT 10SM FEW120 02/M02 A2997 RMK AO1
Pressure 29.97 in
Visibility 10.0 miles
Clouds Few 12000 ft
Windchill 32 °F
Dew Point 33 °F
Humidity 88%
Rainfall 0.00 in
Snow Depth Not available.
7:03 AM 5:20 PM
Waning Crescent, 2% visible
METAR KSQI 070655Z 21003KT 10SM FEW120 02/M02 A2997 RMK AO1

10-Day Weather Forecast

Almanac

Astronomy

Feb. 07, 2016 Rise Set
Actual Time
Civil Twilight
Nautical Twilight
Astronomical Twilight
Moon
Length of Visible Light
Length of Day
Tomorrow will be .
, % of the Moon is Illuminated

Today's Extremes

State Highs State Lows

Community

WunderPhotos

Upload Photos

1,891,174 photos uploaded!

WunderBlog® & News

Nearby

Air Quality

  Air Quality AQ Index Pollutant
Not available.

Snow Depth

Station Depth Elevation

Earthquake Activity

City Distance Mag. Time & Date
Minimum magnitude displayed is 2.5.

Coastal Water Temperatures

Place Temperature

Stations

Nearby Weather Stations

Station Location Temp. Windchill Dew Point Humidity Wind Precip. Elev Updated Type
                   

Watches & Warnings

There are currently no watches in effect.